Have a Safe July 4th! 

Flight Track Log - Related Links

Times and Time Zones

All times are in EDT time to prevent confusion due to time zone crossing. See the RPA3436 flight status page for this flight to view local times or setup timezone preferences in your user account.

Time Position Orientation Groundspeed Altitude Reporting Facility
EDT Latitude Longitude Course Direction KTS MPH feet Rate Location/Type
Sun 10:25:53 AM 38.8333 -77.0167 61° Northeast 157 181 1,300  Level Potomac TRACON
Sun 10:26:53 AM 38.7833 -77.0333 195° South 214 246 3,700 2,263 Climbing Potomac TRACON
Sun 10:27:47 AM 38.7667 -76.9667 108° East 254 292 5,600 2,450 Climbing Potomac TRACON
Sun 10:28:00 AM 38.9558 -76.7160 67° East  Level FlightAware Approximate
Sun 10:28:53 AM 38.8333 -76.9000 38° Northeast 305 351 8,600  Level Potomac TRACON
Sun 10:29:00 AM 38.9968 -76.6097 67° East  Level FlightAware Approximate
Sun 10:30:00 AM 39.0385 -76.5038 63° Northeast  Level FlightAware Approximate
Sun 10:31:00 AM 39.0817 -76.3984 61° Northeast  Level FlightAware Approximate
Sun 10:31:14 AM 38.9828 -76.7586 36° Northeast 323 372 13,400  Level Washington Center
Sun 10:32:14 AM 39.0214 -76.6389 67° East 328 377 15,600 2,085 Climbing Washington Center
Sun 10:33:12 AM 39.0600 -76.5139 68° East 343 395 17,500 1,916 Climbing Washington Center
Sun 10:34:13 AM 39.1003 -76.3861 68° East 383 441 19,400 1,736 Climbing Washington Center
Sun 10:35:13 AM 39.1408 -76.2553 68° East 394 453 21,000 1,550 Climbing Washington Center
Sun 10:36:13 AM 39.1686 -76.1003 77° East 399 459 22,500 1,339 Climbing Washington Center
Sun 10:37:14 AM 39.1839 -75.9531 82° East 404 465 23,700 1,311 Climbing Washington Center
Sun 10:38:12 AM 39.2383 -75.8219 62° Northeast 403 464 25,100 1,424 Climbing Washington Center
Sun 10:39:12 AM 39.3217 -75.7150 45° Northeast 403 464 26,500 942 Climbing Washington Center
Sun 10:40:13 AM 39.4114 -75.6022 44° Northeast 417 480 27,000 248 Climbing Washington Center
Sun 10:41:13 AM 39.5008 -75.4839 46° Northeast 442 509 27,000  Level Washington Center
Sun 10:42:14 AM 39.5903 -75.3653 46° Northeast 452 520 27,000  Level Washington Center
Sun 10:43:12 AM 39.6797 -75.2464 46° Northeast 452 520 27,000  Level Washington Center
Sun 10:44:17 AM 39.7622 -75.1269 48° Northeast 479 551 27,000  Level New York Center
Sun 10:45:17 AM 39.8481 -75.0025 48° Northeast 485 558 27,000  Level New York Center
Sun 10:46:15 AM 39.9314 -74.8831 48° Northeast 470 541 27,000  Level New York Center
Sun 10:47:15 AM 40.0211 -74.7581 47° Northeast 470 541 27,000  Level New York Center
Sun 10:48:15 AM 40.1067 -74.6356 48° Northeast 458 527 27,000  Level New York Center
Sun 10:49:16 AM 40.1939 -74.5100 48° Northeast 458 527 27,000  Level New York Center
Sun 10:50:16 AM 40.2889 -74.4036 40° Northeast 447 514 27,000  Level New York Center
Sun 10:51:17 AM 40.3839 -74.2994 40° Northeast 447 514 27,000  Level New York Center
Sun 10:52:17 AM 40.4850 -74.1928 39° Northeast 452 520 27,000  Level New York Center
Sun 10:53:15 AM 40.5817 -74.0883 39° Northeast 452 520 27,000 -878 Level New York Center
Sun 10:55:42 AM 40.8161 -73.8386 39° Northeast 448 516 24,000 -932 Descending Boston Center
Sun 10:56:41 AM 40.9050 -73.7281 43° Northeast 429 494 23,800 -504 Descending Boston Center
Sun 10:57:41 AM 41.0061 -73.6392 34° Northeast 424 488 23,000 -400 Descending Boston Center
Sun 10:58:41 AM 41.1111 -73.5642 28° Northeast 424 488 23,000 -800 Level Boston Center
Sun 10:59:41 AM 41.2139 -73.4886 29° Northeast 424 488 21,400 -1,750 Descending Boston Center
Sun 11:00:41 AM 41.3167 -73.4156 28° Northeast 419 482 19,500 -1,700 Descending Boston Center
Sun 11:01:41 AM 41.4256 -73.3481 25° Northeast 399 459 18,000 -750 Descending Boston Center
Sun 11:02:41 AM 41.5192 -73.3606 354° North 369 425 18,000  Level Boston Center
Sun 11:03:41 AM 41.6314 -73.3928 348° North 370 426 18,000 -550 Level Boston Center
Sun 11:04:41 AM 41.7356 -73.4222 348° North 375 432 16,900 -1,140 Descending Boston Center
Sun 11:05:42 AM 41.8372 -73.4517 348° North 375 432 15,700 -1,650 Descending Boston Center
Sun 11:06:41 AM 41.9039 -73.4694 349° North 362 417 13,600 -2,872 Descending Boston Center
Sun 11:07:16 AM 41.9892 -73.4931 348° North 343 395 11,200 -1,753 Descending Boston Center
Sun 11:08:10 AM 42.0722 -73.5197 347° North 331 381 11,000 -141 Descending Boston Center
Sun 11:08:41 AM 42.1056 -73.5258 352° North 337 388 11,000  Level Boston Center
Sun 11:09:11 AM 42.1681 -73.5186 North 348 400 11,000  Level Boston Center
Sun 11:09:41 AM 42.2036 -73.5192 359° North 332 382 11,000 -867 Level Boston Center
Sun 11:10:41 AM 42.2889 -73.5375 351° North 327 376 9,700 -1,826 Descending Boston Center
Sun 11:11:13 AM 42.3367 -73.5522 347° North 278 320 8,200 -2,217 Descending Boston Center
Sun 11:12:13 AM 42.4136 -73.5678 352° North 279 321 6,300 -1,587 Descending Boston Center
Sun 11:13:14 AM 42.4864 -73.5858 350° North 273 314 5,000 -639 Descending Boston Center
Sun 11:14:15 AM 42.5675 -73.6072 349° North 269 310 5,000  Level Boston Center
Sun 11:14:53 AM 42.5986 -73.6106 355° North 276 318 5,000 -184 Level Boston Center
Sun 11:15:53 AM 42.6858 -73.6319 350° North 276 318 4,700 -300 Descending Boston Center

Login

Don't have an account? Register now (free) for customized features, flight alerts, and more!